createdAt,value
2022-11-03T00:00:42.196Z,96.50
2022-11-03T00:03:09.542Z,96.31
2022-11-03T00:05:39.690Z,96.13
2022-11-03T00:08:06.945Z,97.03
2022-11-03T00:10:33.886Z,97.29
2022-11-03T00:13:00.770Z,96.95
2022-11-03T00:15:27.606Z,96.88
2022-11-03T00:17:54.433Z,97.66
2022-11-03T00:20:21.491Z,97.82
2022-11-03T00:22:48.349Z,97.74
2022-11-03T00:25:15.216Z,97.89
2022-11-03T00:27:42.128Z,97.92
2022-11-03T00:30:09.382Z,97.68
2022-11-03T00:32:36.370Z,98.11
2022-11-03T00:35:03.303Z,98.78
2022-11-03T00:37:30.141Z,98.78
2022-11-03T00:39:57.000Z,98.54
2022-11-03T00:42:23.858Z,98.64
2022-11-03T00:44:50.754Z,99.00
2022-11-03T00:47:21.628Z,99.29
2022-11-03T00:49:51.962Z,99.04
2022-11-03T00:52:18.823Z,99.11
2022-11-03T00:54:46.601Z,99.37
2022-11-03T00:57:15.781Z,99.27
2022-11-03T00:59:42.577Z,99.28
2022-11-03T01:02:09.488Z,98.97
2022-11-03T01:04:39.458Z,98.80
2022-11-03T01:07:06.650Z,98.49
2022-11-03T01:09:36.569Z,98.35
2022-11-03T01:12:03.740Z,98.20
2022-11-03T01:14:34.040Z,97.83
2022-11-03T01:17:01.083Z,97.48
2022-11-03T01:19:28.378Z,97.58
2022-11-03T01:21:55.510Z,97.58
2022-11-03T01:24:22.581Z,97.25
2022-11-03T01:26:49.730Z,96.96
2022-11-03T01:29:16.763Z,96.83
2022-11-03T01:31:43.662Z,96.42
2022-11-03T01:34:14.153Z,96.49
2022-11-03T01:36:41.007Z,97.04
2022-11-03T01:39:09.818Z,97.29
2022-11-03T01:41:36.674Z,97.51
2022-11-03T01:44:06.723Z,97.24
2022-11-03T01:46:34.489Z,97.10
2022-11-03T01:49:05.105Z,97.60
2022-11-03T01:51:33.093Z,97.77
2022-11-03T01:54:02.348Z,97.65
2022-11-03T01:56:30.725Z,97.52
2022-11-03T01:59:00.743Z,97.56
2022-11-03T02:01:27.931Z,97.38
2022-11-03T02:03:57.758Z,97.66
2022-11-03T02:06:26.209Z,97.78
2022-11-03T02:08:56.452Z,97.66
2022-11-03T02:11:32.374Z,97.57
2022-11-03T02:13:59.104Z,97.98
2022-11-03T02:16:27.125Z,97.99
2022-11-03T02:18:54.589Z,98.09
2022-11-03T02:21:31.002Z,97.99
2022-11-03T02:24:02.594Z,97.88
2022-11-03T02:26:29.373Z,97.80
2022-11-03T02:28:56.161Z,97.75
2022-11-03T02:31:32.673Z,97.99
2022-11-03T02:34:06.945Z,98.64
2022-11-03T02:36:43.738Z,98.80
2022-11-03T02:39:10.754Z,98.52
2022-11-03T02:41:38.409Z,98.53
2022-11-03T02:44:07.862Z,98.44
2022-11-03T02:46:35.023Z,98.49
2022-11-03T02:49:01.844Z,98.88
2022-11-03T02:51:28.549Z,98.74
2022-11-03T02:54:06.440Z,98.63
2022-11-03T02:56:37.964Z,98.67
2022-11-03T02:59:10.459Z,98.85
2022-11-03T03:01:47.602Z,99.07
2022-11-03T03:04:18.131Z,99.52
2022-11-03T03:06:49.284Z,99.87
2022-11-03T03:09:19.423Z,99.61
2022-11-03T03:11:51.783Z,99.74
2022-11-03T03:14:22.122Z,99.51
2022-11-03T03:16:49.480Z,99.85
2022-11-03T03:19:16.359Z,100.00
2022-11-03T03:21:45.028Z,100.00
2022-11-03T03:24:19.959Z,100.00
2022-11-03T03:26:49.822Z,100.00
2022-11-03T03:29:19.524Z,100.00
2022-11-03T03:31:48.683Z,100.00
2022-11-03T03:34:33.981Z,100.00
2022-11-03T03:37:03.708Z,100.00
2022-11-03T03:39:32.774Z,100.00
2022-11-03T03:42:01.865Z,100.00
2022-11-03T03:44:29.080Z,100.00
2022-11-03T03:46:59.866Z,100.00
2022-11-03T03:49:26.844Z,100.00
2022-11-03T03:51:53.524Z,100.00
2022-11-03T03:54:20.223Z,100.00
2022-11-03T03:56:56.468Z,100.00
2022-11-03T03:59:23.304Z,100.00
2022-11-03T04:01:50.213Z,100.00
2022-11-03T04:04:17.291Z,100.00
2022-11-03T04:06:44.029Z,100.00
2022-11-03T04:09:10.759Z,100.00
2022-11-03T04:11:47.924Z,100.00
2022-11-03T04:14:24.534Z,100.00
2022-11-03T04:17:00.808Z,100.00
2022-11-03T04:19:37.889Z,100.00
2022-11-03T04:22:14.788Z,100.00
2022-11-03T04:24:41.534Z,100.00
2022-11-03T04:27:20.661Z,100.00
2022-11-03T04:29:47.409Z,100.00
2022-11-03T04:32:16.460Z,100.00
2022-11-03T04:34:43.436Z,100.00
2022-11-03T04:37:12.389Z,100.00
2022-11-03T04:39:39.259Z,100.00
2022-11-03T04:42:15.371Z,100.00
2022-11-03T04:44:42.128Z,100.00
2022-11-03T04:47:12.066Z,100.00
2022-11-03T04:49:38.864Z,100.00
2022-11-03T04:52:13.244Z,100.00
2022-11-03T04:54:40.170Z,100.00
2022-11-03T04:57:11.879Z,100.00
2022-11-03T04:59:38.628Z,100.00
2022-11-03T05:04:56.603Z,100.00
2022-11-03T05:07:32.664Z,100.00
2022-11-03T05:09:59.844Z,100.00
2022-11-03T05:12:26.682Z,100.00
2022-11-03T05:14:58.024Z,100.00
2022-11-03T05:17:26.826Z,100.00
2022-11-03T05:19:58.779Z,100.00
2022-11-03T05:22:26.743Z,100.00
2022-11-03T05:24:56.550Z,100.00
2022-11-03T05:27:24.284Z,100.00
2022-11-03T05:29:56.390Z,100.00
2022-11-03T05:32:28.346Z,100.00
2022-11-03T05:34:56.133Z,100.00
2022-11-03T05:37:32.814Z,100.00
2022-11-03T05:40:01.271Z,100.00
2022-11-03T05:42:30.760Z,100.00
2022-11-03T05:44:58.249Z,100.00
2022-11-03T05:47:26.436Z,99.99
2022-11-03T05:49:55.119Z,99.95
2022-11-03T05:52:24.485Z,100.00
2022-11-03T05:54:52.580Z,100.00
2022-11-03T05:57:19.844Z,100.00
2022-11-03T05:59:47.755Z,100.00
2022-11-03T06:02:23.936Z,100.00
2022-11-03T06:04:50.713Z,100.00
2022-11-03T06:07:26.490Z,100.00
2022-11-03T06:09:53.850Z,100.00
2022-11-03T06:12:22.459Z,100.00
2022-11-03T06:14:49.703Z,100.00
2022-11-03T06:17:22.286Z,100.00
2022-11-03T06:19:49.903Z,100.00
2022-11-03T06:22:26.989Z,100.00
2022-11-03T06:24:59.164Z,100.00
2022-11-03T06:27:27.594Z,99.27
2022-11-03T06:29:57.782Z,98.75
2022-11-03T06:32:25.135Z,99.20
2022-11-03T06:34:54.458Z,99.54
2022-11-03T06:37:26.191Z,99.47
2022-11-03T06:39:58.761Z,99.54
2022-11-03T06:42:31.607Z,98.99
2022-11-03T06:44:58.748Z,98.20
2022-11-03T06:47:26.459Z,98.40
2022-11-03T06:49:56.108Z,99.08
2022-11-03T06:52:32.763Z,99.62
2022-11-03T06:55:17.136Z,99.82
2022-11-03T06:57:47.397Z,99.80
2022-11-03T07:00:32.866Z,99.76
2022-11-03T07:03:01.005Z,100.00
2022-11-03T07:05:29.983Z,100.00
2022-11-03T07:07:58.634Z,99.82
2022-11-03T07:10:27.604Z,99.71
2022-11-03T07:12:55.418Z,99.47
2022-11-03T07:15:26.165Z,98.84
2022-11-03T07:17:53.404Z,98.52
2022-11-03T07:20:20.295Z,98.49
2022-11-03T07:22:48.065Z,97.81
2022-11-03T07:25:19.636Z,98.02
2022-11-03T07:27:49.185Z,98.32
2022-11-03T07:30:18.936Z,98.77
2022-11-03T07:32:46.475Z,99.04
2022-11-03T07:35:22.625Z,99.50
2022-11-03T07:37:50.515Z,99.59
2022-11-03T07:40:19.384Z,99.72
2022-11-03T07:42:46.351Z,99.89
2022-11-03T07:45:22.783Z,99.59
2022-11-03T07:47:49.724Z,99.51
2022-11-03T07:50:16.685Z,99.75
2022-11-03T07:52:43.815Z,100.00
2022-11-03T07:55:11.595Z,99.89
2022-11-03T07:57:39.747Z,99.74
2022-11-03T08:00:10.401Z,99.77
2022-11-03T08:02:47.781Z,99.48
2022-11-03T08:05:14.979Z,99.56
2022-11-03T08:07:41.927Z,99.80
2022-11-03T08:10:09.380Z,99.34
2022-11-03T08:12:38.033Z,98.79
2022-11-03T08:15:05.594Z,98.86
2022-11-03T08:17:32.507Z,98.39
2022-11-03T08:20:00.962Z,98.69
2022-11-03T08:22:28.097Z,99.07
2022-11-03T08:24:55.020Z,99.09
2022-11-03T08:27:22.116Z,98.51
2022-11-03T08:29:49.609Z,98.56
2022-11-03T08:32:16.473Z,98.52
2022-11-03T08:34:43.783Z,98.84
2022-11-03T08:37:10.786Z,98.80
2022-11-03T08:39:37.835Z,98.50
2022-11-03T08:42:04.838Z,98.22
2022-11-03T08:44:31.759Z,97.59
2022-11-03T08:46:58.809Z,98.30
2022-11-03T08:52:43.900Z,98.60
2022-11-03T08:55:11.128Z,97.73
2022-11-03T08:57:38.092Z,99.38
2022-11-03T09:00:06.608Z,99.67
2022-11-03T09:02:33.793Z,98.88
2022-11-03T09:05:00.702Z,98.25
2022-11-03T09:12:44.564Z,97.42
2022-11-03T09:15:12.257Z,98.38
2022-11-03T09:17:40.630Z,98.20
2022-11-03T09:20:10.965Z,98.12
2022-11-03T09:22:37.995Z,97.86
2022-11-03T09:25:05.635Z,97.49
2022-11-03T09:27:34.790Z,97.51
2022-11-03T09:30:16.699Z,97.47
2022-11-03T09:32:44.376Z,97.40
2022-11-03T09:35:12.624Z,96.68
2022-11-03T09:37:39.686Z,96.77
2022-11-03T09:40:07.611Z,97.29
2022-11-03T09:42:34.859Z,97.77
2022-11-03T09:45:02.315Z,96.80
2022-11-03T09:47:33.827Z,96.56
2022-11-03T09:50:01.362Z,96.87
2022-11-03T09:52:28.496Z,97.03
2022-11-03T09:54:56.712Z,96.86
2022-11-03T09:57:24.233Z,97.25
2022-11-03T09:59:51.565Z,97.24
2022-11-03T10:02:27.124Z,97.97
2022-11-03T10:04:56.297Z,97.94
2022-11-03T10:07:24.670Z,97.97
2022-11-03T10:09:52.727Z,97.56
2022-11-03T10:12:20.303Z,97.76
2022-11-03T10:14:48.006Z,97.71
2022-11-03T10:17:18.515Z,97.14
2022-11-03T10:19:50.007Z,97.03
2022-11-03T10:22:17.331Z,96.23
2022-11-03T10:24:44.391Z,96.73
2022-11-03T10:27:21.076Z,96.44
2022-11-03T10:30:04.558Z,96.32
2022-11-03T10:32:33.902Z,96.04
2022-11-03T10:35:01.350Z,96.16
2022-11-03T10:37:28.740Z,96.28
2022-11-03T10:39:56.628Z,96.46
2022-11-03T10:42:28.129Z,96.92
2022-11-03T10:45:06.626Z,96.55
2022-11-03T10:47:34.932Z,96.59
2022-11-03T10:50:17.263Z,96.71
2022-11-03T10:52:44.086Z,96.11
2022-11-03T10:55:11.545Z,95.70
2022-11-03T10:57:38.635Z,95.38
2022-11-03T11:00:06.275Z,95.58
2022-11-03T11:02:36.778Z,96.12
2022-11-03T11:05:10.519Z,96.35
2022-11-03T11:07:39.812Z,96.63
2022-11-03T11:10:07.427Z,96.38
2022-11-03T11:12:34.476Z,96.56
2022-11-03T11:15:02.986Z,96.26
2022-11-03T11:17:39.726Z,96.57
2022-11-03T11:20:24.471Z,95.44
2022-11-03T11:22:51.708Z,96.12
2022-11-03T11:25:19.030Z,96.92
2022-11-03T11:27:46.419Z,96.35
2022-11-03T11:30:16.736Z,96.26
2022-11-03T11:32:57.477Z,96.23
2022-11-03T11:35:25.568Z,96.09
2022-11-03T11:37:53.116Z,96.13
2022-11-03T11:40:27.292Z,95.41
2022-11-03T11:43:04.752Z,94.08
2022-11-03T11:45:41.637Z,93.00
2022-11-03T11:48:18.991Z,93.41
2022-11-03T11:50:46.435Z,93.42
2022-11-03T11:53:14.915Z,92.95
2022-11-03T11:55:43.788Z,93.49
2022-11-03T11:58:16.078Z,94.26
2022-11-03T12:00:51.927Z,94.38
2022-11-03T12:03:23.141Z,94.68
2022-11-03T12:05:51.021Z,94.81
2022-11-03T12:08:19.376Z,94.28
2022-11-03T12:10:55.861Z,94.01
2022-11-03T12:13:44.090Z,93.09
2022-11-03T12:16:27.219Z,92.23
2022-11-03T12:18:54.325Z,92.09
2022-11-03T12:21:30.950Z,92.69
2022-11-03T12:23:57.969Z,92.89
2022-11-03T12:26:26.248Z,93.18
2022-11-03T12:28:53.215Z,92.25
2022-11-03T12:31:20.297Z,91.21
2022-11-03T12:33:47.313Z,91.43
2022-11-03T12:36:15.629Z,91.95
2022-11-03T12:38:42.778Z,91.25
2022-11-03T12:41:19.567Z,90.93
2022-11-03T12:43:46.772Z,89.88
2022-11-03T12:46:14.007Z,89.70
2022-11-03T12:48:44.530Z,89.91
2022-11-03T12:51:13.231Z,89.76
2022-11-03T12:53:41.388Z,91.10
2022-11-03T12:56:09.237Z,90.69
2022-11-03T12:58:36.335Z,89.16
2022-11-03T13:01:03.670Z,88.34
2022-11-03T13:03:32.139Z,88.24
2022-11-03T13:05:59.446Z,88.36
2022-11-03T13:08:26.642Z,88.46
2022-11-03T13:10:53.789Z,87.35
2022-11-03T13:13:20.798Z,86.79
2022-11-03T13:15:47.850Z,86.26
2022-11-03T13:18:14.869Z,87.10
2022-11-03T13:20:42.488Z,87.37
2022-11-03T13:23:09.865Z,87.97
2022-11-03T13:25:37.582Z,88.48
2022-11-03T13:28:05.684Z,88.48
2022-11-03T13:30:37.004Z,89.29
2022-11-03T13:33:04.449Z,89.82
2022-11-03T13:35:31.835Z,88.83
2022-11-03T13:37:58.797Z,88.70
2022-11-03T13:43:13.242Z,89.05
2022-11-03T13:45:42.077Z,89.62
2022-11-03T13:50:57.200Z,90.01
2022-11-03T13:56:16.951Z,89.09
2022-11-03T14:01:33.885Z,89.84
2022-11-03T14:06:47.976Z,91.23
2022-11-03T14:09:14.957Z,90.69
2022-11-03T14:11:54.505Z,89.77
2022-11-03T14:14:21.466Z,89.80
2022-11-03T14:16:48.721Z,89.81
2022-11-03T14:19:15.797Z,90.12
2022-11-03T14:21:43.262Z,90.83
2022-11-03T14:24:10.445Z,90.56
2022-11-03T14:26:42.690Z,90.71
2022-11-03T14:29:10.270Z,90.87
2022-11-03T14:31:37.559Z,90.95
2022-11-03T14:34:04.524Z,90.76
2022-11-03T14:36:31.498Z,88.96
2022-11-03T14:38:58.554Z,88.12
2022-11-03T14:41:35.792Z,88.43
2022-11-03T14:44:03.808Z,89.73
2022-11-03T14:46:30.765Z,89.66
2022-11-03T14:48:58.110Z,88.38
2022-11-03T14:51:25.357Z,87.59
2022-11-03T14:53:52.590Z,87.59
2022-11-03T14:56:19.711Z,86.26
2022-11-03T14:58:46.728Z,85.25
2022-11-03T15:01:14.476Z,84.26
2022-11-03T15:03:42.630Z,84.51
2022-11-03T15:06:10.615Z,85.12
2022-11-03T15:08:38.075Z,85.89
2022-11-03T15:11:08.758Z,86.13
2022-11-03T15:13:41.653Z,85.56
2022-11-03T15:16:13.174Z,84.80
2022-11-03T15:18:40.573Z,85.50
2022-11-03T15:21:07.649Z,85.65
2022-11-03T15:26:22.449Z,87.99
2022-11-03T15:28:49.900Z,88.79
2022-11-03T15:31:17.092Z,86.87
2022-11-03T15:33:44.309Z,85.69
2022-11-03T15:36:12.419Z,85.37
2022-11-03T15:38:39.849Z,85.50
2022-11-03T15:41:16.666Z,85.36
2022-11-03T15:43:46.894Z,85.90
2022-11-03T15:46:14.538Z,87.14
2022-11-03T15:48:42.656Z,86.92
2022-11-03T15:51:10.178Z,87.21
2022-11-03T15:53:38.022Z,86.41
2022-11-03T15:56:05.311Z,85.69
2022-11-03T15:58:34.832Z,85.00
2022-11-03T16:01:03.520Z,84.04
2022-11-03T16:03:32.627Z,84.08
2022-11-03T16:06:01.492Z,85.48
2022-11-03T16:08:28.761Z,83.43
2022-11-03T16:10:58.274Z,83.44
2022-11-03T16:13:26.621Z,83.47
2022-11-03T16:15:55.003Z,83.83
2022-11-03T16:18:24.843Z,84.91
2022-11-03T16:20:52.078Z,84.89
2022-11-03T16:23:19.222Z,84.80
2022-11-03T16:25:47.537Z,84.21
2022-11-03T16:28:15.049Z,84.88
2022-11-03T16:30:42.440Z,84.65
2022-11-03T16:33:09.895Z,86.36
2022-11-03T16:35:37.169Z,86.63
2022-11-03T16:38:04.619Z,85.77
2022-11-03T16:40:32.198Z,86.16
2022-11-03T16:42:59.908Z,86.10
2022-11-03T16:45:30.403Z,86.96
2022-11-03T16:48:00.903Z,86.43
2022-11-03T16:50:28.416Z,85.48
2022-11-03T16:52:55.691Z,85.97
2022-11-03T16:55:22.922Z,87.04
2022-11-03T16:57:50.362Z,87.64
2022-11-03T17:00:18.706Z,86.95
2022-11-03T17:02:46.712Z,87.29
2022-11-03T17:05:14.365Z,87.63
2022-11-03T17:07:41.971Z,86.92
2022-11-03T17:10:09.628Z,87.27
2022-11-03T17:12:37.253Z,88.57
2022-11-03T17:15:05.398Z,88.52
2022-11-03T17:17:33.092Z,88.25
2022-11-03T17:20:00.532Z,87.68
2022-11-03T17:22:27.910Z,86.88
2022-11-03T17:24:55.112Z,87.72
2022-11-03T17:27:27.780Z,87.37
2022-11-03T17:29:57.380Z,87.62
2022-11-03T17:32:26.862Z,87.31
2022-11-03T17:34:54.346Z,86.89
2022-11-03T17:37:23.633Z,86.65
2022-11-03T17:39:51.150Z,86.85
2022-11-03T17:42:26.266Z,88.07
2022-11-03T17:44:56.068Z,87.76
2022-11-03T17:47:24.137Z,87.06
2022-11-03T17:49:52.402Z,87.14
2022-11-03T17:52:26.737Z,88.19
2022-11-03T17:54:59.631Z,87.96
2022-11-03T17:57:27.201Z,88.07
2022-11-03T17:59:57.088Z,88.61
2022-11-03T18:02:26.884Z,88.50
2022-11-03T18:04:59.099Z,89.32
2022-11-03T18:07:28.020Z,89.77
2022-11-03T18:09:56.848Z,89.84
2022-11-03T18:12:35.717Z,89.59
2022-11-03T18:15:05.061Z,89.25
2022-11-03T18:17:32.864Z,89.33
2022-11-03T18:20:00.700Z,89.63
2022-11-03T18:22:28.313Z,90.63
2022-11-03T18:24:55.959Z,90.99
2022-11-03T18:27:25.366Z,90.95
2022-11-03T18:29:53.165Z,91.00
2022-11-03T18:32:23.357Z,90.09
2022-11-03T18:34:50.858Z,89.79
2022-11-03T18:37:18.285Z,90.70
2022-11-03T18:39:45.741Z,90.55
2022-11-03T18:42:14.549Z,90.12
2022-11-03T18:44:43.520Z,90.20
2022-11-03T18:47:11.444Z,90.25
2022-11-03T18:49:39.256Z,89.80
2022-11-03T18:52:11.857Z,89.58
2022-11-03T18:54:41.009Z,89.37
2022-11-03T18:57:10.321Z,89.96
2022-11-03T18:59:39.817Z,90.92
2022-11-03T19:02:15.928Z,90.09
2022-11-03T19:04:43.733Z,89.94
2022-11-03T19:07:13.071Z,90.39
2022-11-03T19:09:41.008Z,90.37
2022-11-03T19:12:10.670Z,90.15
2022-11-03T19:14:40.236Z,89.65
2022-11-03T19:17:27.178Z,89.76
2022-11-03T19:19:54.764Z,90.06
2022-11-03T19:22:23.097Z,90.47
2022-11-03T19:24:50.631Z,89.69
2022-11-03T19:27:21.096Z,89.04
2022-11-03T19:29:49.051Z,88.46
2022-11-03T19:32:23.577Z,88.15
2022-11-03T19:34:54.840Z,88.74
2022-11-03T19:37:22.426Z,89.45
2022-11-03T19:39:49.743Z,89.60
2022-11-03T19:42:27.742Z,89.40
2022-11-03T19:44:57.617Z,89.01
2022-11-03T19:47:28.352Z,88.85
2022-11-03T19:49:59.399Z,89.28
2022-11-03T19:52:28.254Z,88.65
2022-11-03T19:54:56.109Z,88.67
2022-11-03T19:57:23.237Z,88.54
2022-11-03T19:59:50.589Z,89.01
2022-11-03T20:02:17.956Z,89.48
2022-11-03T20:04:47.758Z,90.56
2022-11-03T20:07:18.217Z,90.97
2022-11-03T20:09:45.708Z,90.73
2022-11-03T20:12:16.297Z,90.52
2022-11-03T20:14:43.451Z,90.71
2022-11-03T20:17:14.516Z,91.03
2022-11-03T20:19:43.220Z,91.06
2022-11-03T20:22:15.279Z,91.07
2022-11-03T20:24:43.049Z,90.86
2022-11-03T20:27:11.898Z,91.34
2022-11-03T20:29:39.780Z,91.25
2022-11-03T20:32:07.789Z,91.40
2022-11-03T20:34:35.022Z,91.94
2022-11-03T20:37:04.786Z,90.90
2022-11-03T20:39:33.397Z,91.34
2022-11-03T20:42:01.449Z,91.77
2022-11-03T20:44:28.637Z,91.72
2022-11-03T20:46:56.054Z,91.44
2022-11-03T20:49:23.337Z,91.48
2022-11-03T20:51:51.377Z,91.06
2022-11-03T20:54:20.118Z,90.54
2022-11-03T20:56:47.987Z,90.69
2022-11-03T20:59:17.324Z,90.26
2022-11-03T21:01:46.200Z,89.88
2022-11-03T21:04:14.522Z,90.67
2022-11-03T21:06:43.162Z,90.86
2022-11-03T21:09:14.787Z,90.01
2022-11-03T21:11:43.775Z,90.35
2022-11-03T21:14:20.813Z,89.93
2022-11-03T21:16:57.709Z,89.72
2022-11-03T21:19:35.521Z,89.04
2022-11-03T21:22:02.903Z,88.86
2022-11-03T21:24:30.191Z,88.45
2022-11-03T21:26:57.580Z,88.32
2022-11-03T21:29:53.302Z,89.08
2022-11-03T21:32:13.654Z,90.40
2022-11-03T21:34:41.011Z,90.02
2022-11-03T21:37:08.236Z,89.12
2022-11-03T21:39:36.304Z,88.98
2022-11-03T21:42:12.577Z,88.95
2022-11-03T21:44:40.096Z,88.83
2022-11-03T21:47:07.366Z,89.09
2022-11-03T21:49:43.595Z,89.87
2022-11-03T21:52:11.785Z,89.47
2022-11-03T21:54:39.618Z,88.00
2022-11-03T21:57:07.340Z,87.23
2022-11-03T21:59:34.800Z,86.79
2022-11-03T22:02:03.083Z,86.73
2022-11-03T22:04:30.240Z,86.51
2022-11-03T22:06:58.659Z,86.59
2022-11-03T22:09:27.035Z,86.43
2022-11-03T22:11:54.626Z,87.11
2022-11-03T22:14:21.899Z,87.38
2022-11-03T22:16:49.152Z,87.52
2022-11-03T22:19:27.612Z,86.64
2022-11-03T22:22:04.719Z,85.92
2022-11-03T22:24:41.455Z,85.56
2022-11-03T22:27:08.877Z,87.00
2022-11-03T22:29:48.588Z,87.10
2022-11-03T22:32:15.686Z,86.95
2022-11-03T22:34:52.505Z,87.37
2022-11-03T22:37:19.628Z,87.90
2022-11-03T22:39:55.446Z,88.34
2022-11-03T22:42:31.823Z,86.79
2022-11-03T22:45:08.716Z,86.96
2022-11-03T22:47:35.677Z,87.31
2022-11-03T22:50:02.773Z,87.38
2022-11-03T22:52:30.012Z,86.52
2022-11-03T22:54:57.026Z,84.92
2022-11-03T22:57:24.092Z,84.33
2022-11-03T22:59:51.096Z,83.97
2022-11-03T23:02:18.020Z,83.86
2022-11-03T23:04:46.406Z,83.35
2022-11-03T23:07:13.389Z,82.30
2022-11-03T23:09:40.347Z,82.65
2022-11-03T23:12:07.778Z,83.68
2022-11-03T23:14:44.574Z,84.12
2022-11-03T23:17:11.548Z,85.52
2022-11-03T23:19:47.846Z,85.84
2022-11-03T23:22:14.710Z,86.14
2022-11-03T23:24:51.567Z,86.17
2022-11-03T23:27:18.477Z,86.98
2022-11-03T23:29:45.408Z,87.34
2022-11-03T23:32:12.505Z,87.07
2022-11-03T23:34:39.861Z,87.58
2022-11-03T23:37:06.977Z,87.75
2022-11-03T23:39:33.897Z,87.22
2022-11-03T23:42:00.905Z,87.38
2022-11-03T23:44:47.827Z,88.38
2022-11-03T23:47:34.567Z,88.66
2022-11-03T23:50:01.500Z,88.60
2022-11-03T23:52:28.346Z,88.59
2022-11-03T23:54:55.186Z,88.95
2022-11-03T23:57:31.816Z,88.92
2022-11-03T23:59:58.677Z,88.30
